sensor_id;sensor_type;location;lat;lon;timestamp;P1;durP1;ratioP1;P2;durP2;ratioP2
33740;SDS011;20065;48.380;10.892;2023-04-03T00:02:31;9.82;;;6.03;;
33740;SDS011;20065;48.380;10.892;2023-04-03T00:05:17;9.23;;;5.47;;
33740;SDS011;20065;48.380;10.892;2023-04-03T00:08:03;8.80;;;6.35;;
33740;SDS011;20065;48.380;10.892;2023-04-03T00:10:53;7.85;;;4.82;;
33740;SDS011;20065;48.380;10.892;2023-04-03T00:13:39;7.32;;;5.38;;
33740;SDS011;20065;48.380;10.892;2023-04-03T00:16:25;8.65;;;4.82;;
33740;SDS011;20065;48.380;10.892;2023-04-03T00:19:11;7.00;;;4.97;;
33740;SDS011;20065;48.380;10.892;2023-04-03T00:21:58;6.63;;;3.97;;
33740;SDS011;20065;48.380;10.892;2023-04-03T00:24:44;9.48;;;4.72;;
33740;SDS011;20065;48.380;10.892;2023-04-03T00:27:30;8.63;;;5.72;;
33740;SDS011;20065;48.380;10.892;2023-04-03T00:30:17;7.30;;;4.82;;
33740;SDS011;20065;48.380;10.892;2023-04-03T00:33:05;7.10;;;4.90;;
33740;SDS011;20065;48.380;10.892;2023-04-03T00:35:51;9.18;;;4.60;;
33740;SDS011;20065;48.380;10.892;2023-04-03T00:38:37;5.65;;;3.83;;
33740;SDS011;20065;48.380;10.892;2023-04-03T00:41:24;6.85;;;4.45;;
33740;SDS011;20065;48.380;10.892;2023-04-03T00:47:18;8.23;;;3.85;;
33740;SDS011;20065;48.380;10.892;2023-04-03T00:50:05;7.47;;;3.92;;
33740;SDS011;20065;48.380;10.892;2023-04-03T00:52:52;6.53;;;4.10;;
33740;SDS011;20065;48.380;10.892;2023-04-03T00:55:38;8.80;;;3.92;;
33740;SDS011;20065;48.380;10.892;2023-04-03T00:58:33;7.85;;;4.20;;
33740;SDS011;20065;48.380;10.892;2023-04-03T01:01:25;8.02;;;3.55;;
33740;SDS011;20065;48.380;10.892;2023-04-03T01:04:31;5.32;;;3.72;;
33740;SDS011;20065;48.380;10.892;2023-04-03T01:07:19;6.63;;;3.95;;
33740;SDS011;20065;48.380;10.892;2023-04-03T01:10:10;6.43;;;3.58;;
33740;SDS011;20065;48.380;10.892;2023-04-03T01:12:59;6.82;;;3.55;;
33740;SDS011;20065;48.380;10.892;2023-04-03T01:15:46;7.85;;;4.32;;
33740;SDS011;20065;48.380;10.892;2023-04-03T01:18:33;7.15;;;3.80;;
33740;SDS011;20065;48.380;10.892;2023-04-03T01:27:26;5.95;;;3.00;;
33740;SDS011;20065;48.380;10.892;2023-04-03T01:30:13;7.00;;;4.00;;
33740;SDS011;20065;48.380;10.892;2023-04-03T01:33:03;6.07;;;3.90;;
33740;SDS011;20065;48.380;10.892;2023-04-03T01:35:50;7.35;;;4.30;;
33740;SDS011;20065;48.380;10.892;2023-04-03T01:38:36;8.18;;;3.83;;
33740;SDS011;20065;48.380;10.892;2023-04-03T01:41:24;5.65;;;3.50;;
33740;SDS011;20065;48.380;10.892;2023-04-03T01:44:15;7.43;;;3.95;;
33740;SDS011;20065;48.380;10.892;2023-04-03T01:47:01;7.80;;;4.03;;
33740;SDS011;20065;48.380;10.892;2023-04-03T01:49:50;7.68;;;4.80;;
33740;SDS011;20065;48.380;10.892;2023-04-03T01:52:36;7.03;;;3.70;;
33740;SDS011;20065;48.380;10.892;2023-04-03T01:55:22;8.82;;;3.55;;
33740;SDS011;20065;48.380;10.892;2023-04-03T01:58:09;9.10;;;4.90;;
33740;SDS011;20065;48.380;10.892;2023-04-03T02:00:55;6.63;;;4.00;;
33740;SDS011;20065;48.380;10.892;2023-04-03T02:03:41;6.20;;;3.53;;
33740;SDS011;20065;48.380;10.892;2023-04-03T02:06:30;6.72;;;3.72;;
33740;SDS011;20065;48.380;10.892;2023-04-03T02:09:16;5.22;;;3.38;;
33740;SDS011;20065;48.380;10.892;2023-04-03T02:12:03;6.05;;;3.50;;
33740;SDS011;20065;48.380;10.892;2023-04-03T02:14:50;8.23;;;3.40;;
33740;SDS011;20065;48.380;10.892;2023-04-03T02:17:36;5.22;;;3.15;;
33740;SDS011;20065;48.380;10.892;2023-04-03T02:20:22;6.45;;;3.72;;
33740;SDS011;20065;48.380;10.892;2023-04-03T02:23:09;7.18;;;3.92;;
33740;SDS011;20065;48.380;10.892;2023-04-03T02:26:08;5.53;;;3.70;;
33740;SDS011;20065;48.380;10.892;2023-04-03T02:28:56;6.35;;;3.53;;
33740;SDS011;20065;48.380;10.892;2023-04-03T02:31:45;4.93;;;3.60;;
33740;SDS011;20065;48.380;10.892;2023-04-03T02:34:32;5.82;;;3.78;;
33740;SDS011;20065;48.380;10.892;2023-04-03T02:37:19;5.35;;;3.53;;
33740;SDS011;20065;48.380;10.892;2023-04-03T02:40:06;5.68;;;3.65;;
33740;SDS011;20065;48.380;10.892;2023-04-03T02:42:54;5.65;;;3.35;;
33740;SDS011;20065;48.380;10.892;2023-04-03T02:45:42;5.30;;;3.15;;
33740;SDS011;20065;48.380;10.892;2023-04-03T02:48:29;5.95;;;3.10;;
33740;SDS011;20065;48.380;10.892;2023-04-03T02:51:15;6.47;;;3.60;;
33740;SDS011;20065;48.380;10.892;2023-04-03T02:54:01;6.15;;;3.97;;
33740;SDS011;20065;48.380;10.892;2023-04-03T02:56:51;6.07;;;3.30;;
33740;SDS011;20065;48.380;10.892;2023-04-03T02:59:37;5.55;;;3.28;;
33740;SDS011;20065;48.380;10.892;2023-04-03T03:02:26;7.63;;;4.97;;
33740;SDS011;20065;48.380;10.892;2023-04-03T03:05:12;6.97;;;4.03;;
33740;SDS011;20065;48.380;10.892;2023-04-03T03:07:58;5.20;;;3.67;;
33740;SDS011;20065;48.380;10.892;2023-04-03T03:10:45;8.75;;;4.65;;
33740;SDS011;20065;48.380;10.892;2023-04-03T03:13:31;7.45;;;4.20;;
33740;SDS011;20065;48.380;10.892;2023-04-03T03:16:17;8.48;;;5.25;;
33740;SDS011;20065;48.380;10.892;2023-04-03T03:19:03;8.43;;;4.53;;
33740;SDS011;20065;48.380;10.892;2023-04-03T03:21:50;7.75;;;4.15;;
33740;SDS011;20065;48.380;10.892;2023-04-03T03:24:36;6.18;;;3.88;;
33740;SDS011;20065;48.380;10.892;2023-04-03T03:27:22;6.40;;;3.78;;
33740;SDS011;20065;48.380;10.892;2023-04-03T03:30:09;6.90;;;3.70;;
33740;SDS011;20065;48.380;10.892;2023-04-03T03:32:56;9.52;;;5.15;;
33740;SDS011;20065;48.380;10.892;2023-04-03T03:35:42;11.13;;;4.70;;
33740;SDS011;20065;48.380;10.892;2023-04-03T03:38:28;6.45;;;4.05;;
33740;SDS011;20065;48.380;10.892;2023-04-03T03:41:15;6.63;;;4.38;;
33740;SDS011;20065;48.380;10.892;2023-04-03T03:44:03;7.03;;;3.83;;
33740;SDS011;20065;48.380;10.892;2023-04-03T03:46:51;7.40;;;4.03;;
33740;SDS011;20065;48.380;10.892;2023-04-03T03:49:37;6.85;;;4.63;;
33740;SDS011;20065;48.380;10.892;2023-04-03T03:52:23;8.20;;;4.35;;
33740;SDS011;20065;48.380;10.892;2023-04-03T03:55:09;6.47;;;4.00;;
33740;SDS011;20065;48.380;10.892;2023-04-03T03:57:56;6.78;;;3.90;;
33740;SDS011;20065;48.380;10.892;2023-04-03T04:00:42;5.55;;;3.75;;
33740;SDS011;20065;48.380;10.892;2023-04-03T04:03:29;6.25;;;4.13;;
33740;SDS011;20065;48.380;10.892;2023-04-03T04:06:16;7.88;;;4.28;;
33740;SDS011;20065;48.380;10.892;2023-04-03T04:09:02;5.88;;;3.90;;
33740;SDS011;20065;48.380;10.892;2023-04-03T04:11:49;7.28;;;4.20;;
33740;SDS011;20065;48.380;10.892;2023-04-03T04:14:36;6.30;;;3.55;;
33740;SDS011;20065;48.380;10.892;2023-04-03T04:17:23;8.13;;;4.45;;
33740;SDS011;20065;48.380;10.892;2023-04-03T04:20:10;6.78;;;3.88;;
33740;SDS011;20065;48.380;10.892;2023-04-03T04:22:58;7.07;;;4.35;;
33740;SDS011;20065;48.380;10.892;2023-04-03T04:25:45;5.45;;;3.70;;
33740;SDS011;20065;48.380;10.892;2023-04-03T04:28:32;6.93;;;3.83;;
33740;SDS011;20065;48.380;10.892;2023-04-03T04:31:20;7.45;;;3.83;;
33740;SDS011;20065;48.380;10.892;2023-04-03T04:34:07;6.65;;;4.10;;
33740;SDS011;20065;48.380;10.892;2023-04-03T04:36:55;7.80;;;4.75;;
33740;SDS011;20065;48.380;10.892;2023-04-03T04:39:42;6.43;;;3.90;;
33740;SDS011;20065;48.380;10.892;2023-04-03T04:42:28;7.00;;;4.35;;
33740;SDS011;20065;48.380;10.892;2023-04-03T04:45:14;6.95;;;4.22;;
33740;SDS011;20065;48.380;10.892;2023-04-03T04:48:02;7.82;;;3.60;;
33740;SDS011;20065;48.380;10.892;2023-04-03T04:50:49;7.68;;;4.72;;
33740;SDS011;20065;48.380;10.892;2023-04-03T04:53:35;8.27;;;4.65;;
33740;SDS011;20065;48.380;10.892;2023-04-03T04:56:21;5.90;;;3.60;;
33740;SDS011;20065;48.380;10.892;2023-04-03T04:59:08;6.18;;;3.88;;
33740;SDS011;20065;48.380;10.892;2023-04-03T05:01:54;6.88;;;4.70;;
33740;SDS011;20065;48.380;10.892;2023-04-03T05:04:40;8.48;;;4.63;;
33740;SDS011;20065;48.380;10.892;2023-04-03T05:07:32;8.02;;;3.80;;
33740;SDS011;20065;48.380;10.892;2023-04-03T05:10:19;7.65;;;4.38;;
33740;SDS011;20065;48.380;10.892;2023-04-03T05:13:06;8.15;;;4.60;;
33740;SDS011;20065;48.380;10.892;2023-04-03T05:15:52;8.40;;;4.20;;
33740;SDS011;20065;48.380;10.892;2023-04-03T05:18:38;9.10;;;4.82;;
33740;SDS011;20065;48.380;10.892;2023-04-03T05:21:28;8.30;;;4.75;;
33740;SDS011;20065;48.380;10.892;2023-04-03T05:24:18;6.22;;;4.40;;
33740;SDS011;20065;48.380;10.892;2023-04-03T05:27:04;7.40;;;4.40;;
33740;SDS011;20065;48.380;10.892;2023-04-03T05:29:54;8.82;;;4.45;;
33740;SDS011;20065;48.380;10.892;2023-04-03T05:32:41;7.30;;;4.22;;
33740;SDS011;20065;48.380;10.892;2023-04-03T05:35:35;9.02;;;4.90;;
33740;SDS011;20065;48.380;10.892;2023-04-03T05:38:26;10.70;;;4.88;;
33740;SDS011;20065;48.380;10.892;2023-04-03T05:41:14;7.38;;;4.20;;
33740;SDS011;20065;48.380;10.892;2023-04-03T05:44:03;9.80;;;3.97;;
33740;SDS011;20065;48.380;10.892;2023-04-03T05:46:50;11.65;;;6.15;;
33740;SDS011;20065;48.380;10.892;2023-04-03T05:49:36;7.25;;;4.97;;
33740;SDS011;20065;48.380;10.892;2023-04-03T05:52:27;8.85;;;5.13;;
33740;SDS011;20065;48.380;10.892;2023-04-03T05:55:16;9.65;;;4.93;;
33740;SDS011;20065;48.380;10.892;2023-04-03T05:58:03;11.00;;;5.30;;
33740;SDS011;20065;48.380;10.892;2023-04-03T06:00:49;8.05;;;4.60;;
33740;SDS011;20065;48.380;10.892;2023-04-03T06:03:35;9.55;;;5.95;;
33740;SDS011;20065;48.380;10.892;2023-04-03T06:06:22;8.73;;;4.93;;
33740;SDS011;20065;48.380;10.892;2023-04-03T06:12:00;11.27;;;4.18;;
33740;SDS011;20065;48.380;10.892;2023-04-03T06:14:48;8.32;;;4.60;;
33740;SDS011;20065;48.380;10.892;2023-04-03T06:17:34;9.75;;;4.72;;
33740;SDS011;20065;48.380;10.892;2023-04-03T06:20:20;9.13;;;5.00;;
33740;SDS011;20065;48.380;10.892;2023-04-03T06:23:08;9.93;;;4.78;;
33740;SDS011;20065;48.380;10.892;2023-04-03T06:25:54;9.20;;;5.70;;
33740;SDS011;20065;48.380;10.892;2023-04-03T06:28:40;14.23;;;6.45;;
33740;SDS011;20065;48.380;10.892;2023-04-03T06:31:26;10.23;;;5.72;;
33740;SDS011;20065;48.380;10.892;2023-04-03T06:34:12;9.23;;;4.55;;
33740;SDS011;20065;48.380;10.892;2023-04-03T06:36:59;8.10;;;5.28;;
33740;SDS011;20065;48.380;10.892;2023-04-03T06:39:45;7.97;;;5.30;;
33740;SDS011;20065;48.380;10.892;2023-04-03T06:42:31;10.48;;;5.35;;
33740;SDS011;20065;48.380;10.892;2023-04-03T06:45:25;9.50;;;5.22;;
33740;SDS011;20065;48.380;10.892;2023-04-03T06:48:12;7.55;;;4.25;;
33740;SDS011;20065;48.380;10.892;2023-04-03T06:50:58;8.05;;;5.15;;
33740;SDS011;20065;48.380;10.892;2023-04-03T06:53:44;10.48;;;5.95;;
33740;SDS011;20065;48.380;10.892;2023-04-03T06:56:31;21.20;;;8.23;;
33740;SDS011;20065;48.380;10.892;2023-04-03T06:59:17;12.52;;;7.55;;
33740;SDS011;20065;48.380;10.892;2023-04-03T07:02:05;12.10;;;8.38;;
33740;SDS011;20065;48.380;10.892;2023-04-03T07:04:51;18.00;;;8.45;;
33740;SDS011;20065;48.380;10.892;2023-04-03T07:07:38;8.90;;;5.32;;
33740;SDS011;20065;48.380;10.892;2023-04-03T07:10:24;7.18;;;4.55;;
33740;SDS011;20065;48.380;10.892;2023-04-03T07:13:10;11.13;;;4.85;;
33740;SDS011;20065;48.380;10.892;2023-04-03T07:15:56;9.07;;;4.93;;
33740;SDS011;20065;48.380;10.892;2023-04-03T07:18:43;11.05;;;6.25;;
33740;SDS011;20065;48.380;10.892;2023-04-03T07:21:29;12.43;;;5.38;;
33740;SDS011;20065;48.380;10.892;2023-04-03T07:24:16;9.48;;;4.95;;
33740;SDS011;20065;48.380;10.892;2023-04-03T07:27:02;9.10;;;4.82;;
33740;SDS011;20065;48.380;10.892;2023-04-03T07:29:48;7.70;;;4.95;;
33740;SDS011;20065;48.380;10.892;2023-04-03T07:32:35;6.13;;;4.53;;
33740;SDS011;20065;48.380;10.892;2023-04-03T07:35:22;8.82;;;4.57;;
33740;SDS011;20065;48.380;10.892;2023-04-03T07:38:08;12.15;;;4.38;;
33740;SDS011;20065;48.380;10.892;2023-04-03T07:40:55;9.07;;;4.78;;
33740;SDS011;20065;48.380;10.892;2023-04-03T07:43:41;7.90;;;4.55;;
33740;SDS011;20065;48.380;10.892;2023-04-03T07:46:27;8.00;;;4.93;;
33740;SDS011;20065;48.380;10.892;2023-04-03T07:49:14;12.40;;;4.50;;
33740;SDS011;20065;48.380;10.892;2023-04-03T07:52:01;10.45;;;5.35;;
33740;SDS011;20065;48.380;10.892;2023-04-03T07:54:48;11.95;;;4.95;;
33740;SDS011;20065;48.380;10.892;2023-04-03T07:57:35;10.52;;;4.75;;
33740;SDS011;20065;48.380;10.892;2023-04-03T08:00:21;10.45;;;4.00;;
33740;SDS011;20065;48.380;10.892;2023-04-03T08:03:09;5.57;;;4.03;;
33740;SDS011;20065;48.380;10.892;2023-04-03T08:06:00;7.70;;;4.40;;
33740;SDS011;20065;48.380;10.892;2023-04-03T08:08:49;9.18;;;4.20;;
33740;SDS011;20065;48.380;10.892;2023-04-03T08:11:35;5.63;;;4.22;;
33740;SDS011;20065;48.380;10.892;2023-04-03T08:14:24;9.35;;;4.15;;
33740;SDS011;20065;48.380;10.892;2023-04-03T08:17:10;7.30;;;3.55;;
33740;SDS011;20065;48.380;10.892;2023-04-03T08:19:57;6.85;;;3.47;;
33740;SDS011;20065;48.380;10.892;2023-04-03T08:22:46;7.28;;;4.38;;
33740;SDS011;20065;48.380;10.892;2023-04-03T08:25:33;7.65;;;4.18;;
33740;SDS011;20065;48.380;10.892;2023-04-03T08:28:23;6.90;;;3.92;;
33740;SDS011;20065;48.380;10.892;2023-04-03T08:31:11;8.90;;;3.70;;
33740;SDS011;20065;48.380;10.892;2023-04-03T08:34:00;8.38;;;3.53;;
33740;SDS011;20065;48.380;10.892;2023-04-03T08:36:46;10.93;;;3.80;;
33740;SDS011;20065;48.380;10.892;2023-04-03T08:39:34;7.13;;;3.67;;
33740;SDS011;20065;48.380;10.892;2023-04-03T08:45:46;6.15;;;3.40;;
33740;SDS011;20065;48.380;10.892;2023-04-03T08:48:39;7.40;;;3.60;;
33740;SDS011;20065;48.380;10.892;2023-04-03T08:51:27;9.48;;;3.70;;
33740;SDS011;20065;48.380;10.892;2023-04-03T08:54:23;9.13;;;3.63;;
33740;SDS011;20065;48.380;10.892;2023-04-03T08:57:20;11.50;;;3.50;;
33740;SDS011;20065;48.380;10.892;2023-04-03T09:00:30;7.40;;;4.35;;
33740;SDS011;20065;48.380;10.892;2023-04-03T09:03:32;7.38;;;4.00;;
33740;SDS011;20065;48.380;10.892;2023-04-03T09:06:22;5.63;;;3.00;;
33740;SDS011;20065;48.380;10.892;2023-04-03T09:09:31;6.55;;;3.20;;
33740;SDS011;20065;48.380;10.892;2023-04-03T09:12:26;6.68;;;3.33;;
33740;SDS011;20065;48.380;10.892;2023-04-03T09:15:21;11.30;;;3.85;;
33740;SDS011;20065;48.380;10.892;2023-04-03T09:18:16;8.93;;;3.50;;
33740;SDS011;20065;48.380;10.892;2023-04-03T09:21:19;5.65;;;2.55;;
33740;SDS011;20065;48.380;10.892;2023-04-03T09:24:12;5.28;;;3.03;;
33740;SDS011;20065;48.380;10.892;2023-04-03T09:27:03;7.38;;;3.72;;
33740;SDS011;20065;48.380;10.892;2023-04-03T09:29:52;8.20;;;4.13;;
33740;SDS011;20065;48.380;10.892;2023-04-03T09:32:40;5.40;;;3.00;;
33740;SDS011;20065;48.380;10.892;2023-04-03T09:35:32;7.25;;;3.30;;
33740;SDS011;20065;48.380;10.892;2023-04-03T09:38:20;5.75;;;3.20;;
33740;SDS011;20065;48.380;10.892;2023-04-03T09:41:13;6.80;;;3.92;;
33740;SDS011;20065;48.380;10.892;2023-04-03T09:44:18;8.00;;;3.13;;
33740;SDS011;20065;48.380;10.892;2023-04-03T09:47:18;5.88;;;3.00;;
33740;SDS011;20065;48.380;10.892;2023-04-03T09:53:02;6.00;;;3.20;;
33740;SDS011;20065;48.380;10.892;2023-04-03T09:55:52;5.90;;;2.72;;
33740;SDS011;20065;48.380;10.892;2023-04-03T09:58:39;7.05;;;3.20;;
33740;SDS011;20065;48.380;10.892;2023-04-03T10:01:30;6.97;;;3.58;;
33740;SDS011;20065;48.380;10.892;2023-04-03T10:04:18;6.75;;;3.30;;
33740;SDS011;20065;48.380;10.892;2023-04-03T10:07:25;8.10;;;3.72;;
33740;SDS011;20065;48.380;10.892;2023-04-03T10:10:20;8.15;;;3.55;;
33740;SDS011;20065;48.380;10.892;2023-04-03T10:22:13;7.72;;;3.00;;
33740;SDS011;20065;48.380;10.892;2023-04-03T10:25:20;5.85;;;2.95;;
33740;SDS011;20065;48.380;10.892;2023-04-03T10:43:17;8.02;;;2.97;;
33740;SDS011;20065;48.380;10.892;2023-04-03T10:58:49;7.40;;;3.20;;
33740;SDS011;20065;48.380;10.892;2023-04-03T11:01:41;5.68;;;3.30;;
33740;SDS011;20065;48.380;10.892;2023-04-03T11:04:37;6.72;;;3.78;;
33740;SDS011;20065;48.380;10.892;2023-04-03T11:07:27;5.95;;;3.10;;
33740;SDS011;20065;48.380;10.892;2023-04-03T11:10:21;5.30;;;2.63;;
33740;SDS011;20065;48.380;10.892;2023-04-03T11:13:28;7.00;;;3.40;;
33740;SDS011;20065;48.380;10.892;2023-04-03T11:16:23;7.28;;;3.10;;
33740;SDS011;20065;48.380;10.892;2023-04-03T11:25:19;8.90;;;3.92;;
33740;SDS011;20065;48.380;10.892;2023-04-03T11:28:12;5.65;;;2.78;;
33740;SDS011;20065;48.380;10.892;2023-04-03T11:37:45;7.03;;;3.40;;
33740;SDS011;20065;48.380;10.892;2023-04-03T11:40:36;5.63;;;3.17;;
33740;SDS011;20065;48.380;10.892;2023-04-03T11:43:25;5.70;;;2.92;;
33740;SDS011;20065;48.380;10.892;2023-04-03T11:46:14;7.57;;;3.53;;
33740;SDS011;20065;48.380;10.892;2023-04-03T11:49:01;6.07;;;3.15;;
33740;SDS011;20065;48.380;10.892;2023-04-03T11:51:47;7.68;;;3.42;;
33740;SDS011;20065;48.380;10.892;2023-04-03T11:54:35;6.55;;;3.60;;
33740;SDS011;20065;48.380;10.892;2023-04-03T11:57:45;6.20;;;3.08;;
33740;SDS011;20065;48.380;10.892;2023-04-03T12:03:33;6.57;;;2.60;;
33740;SDS011;20065;48.380;10.892;2023-04-03T12:09:29;5.18;;;3.00;;
33740;SDS011;20065;48.380;10.892;2023-04-03T12:24:35;6.43;;;3.30;;
33740;SDS011;20065;48.380;10.892;2023-04-03T12:27:26;10.52;;;3.25;;
33740;SDS011;20065;48.380;10.892;2023-04-03T12:30:18;6.00;;;3.00;;
33740;SDS011;20065;48.380;10.892;2023-04-03T12:33:37;6.20;;;3.53;;
33740;SDS011;20065;48.380;10.892;2023-04-03T12:36:46;7.95;;;2.58;;
33740;SDS011;20065;48.380;10.892;2023-04-03T12:51:35;4.85;;;2.70;;
33740;SDS011;20065;48.380;10.892;2023-04-03T12:54:32;4.93;;;2.33;;
33740;SDS011;20065;48.380;10.892;2023-04-03T12:57:28;6.07;;;2.33;;
33740;SDS011;20065;48.380;10.892;2023-04-03T13:03:21;4.60;;;1.90;;
33740;SDS011;20065;48.380;10.892;2023-04-03T13:10:00;5.15;;;2.50;;
33740;SDS011;20065;48.380;10.892;2023-04-03T13:12:50;9.93;;;2.30;;
33740;SDS011;20065;48.380;10.892;2023-04-03T13:15:42;5.90;;;2.23;;
33740;SDS011;20065;48.380;10.892;2023-04-03T13:18:31;6.17;;;2.47;;
33740;SDS011;20065;48.380;10.892;2023-04-03T13:21:30;5.35;;;2.92;;
33740;SDS011;20065;48.380;10.892;2023-04-03T13:24:19;4.88;;;2.10;;
33740;SDS011;20065;48.380;10.892;2023-04-03T13:27:05;5.05;;;2.38;;
33740;SDS011;20065;48.380;10.892;2023-04-03T13:29:52;10.35;;;2.35;;
33740;SDS011;20065;48.380;10.892;2023-04-03T13:32:42;5.32;;;2.00;;
33740;SDS011;20065;48.380;10.892;2023-04-03T13:35:39;3.70;;;2.13;;
33740;SDS011;20065;48.380;10.892;2023-04-03T13:38:28;5.05;;;2.20;;
33740;SDS011;20065;48.380;10.892;2023-04-03T13:41:30;7.88;;;1.80;;
33740;SDS011;20065;48.380;10.892;2023-04-03T13:50:01;7.20;;;2.10;;
33740;SDS011;20065;48.380;10.892;2023-04-03T13:53:08;4.22;;;1.80;;
33740;SDS011;20065;48.380;10.892;2023-04-03T13:56:00;3.72;;;1.83;;
33740;SDS011;20065;48.380;10.892;2023-04-03T13:59:32;4.07;;;1.50;;
33740;SDS011;20065;48.380;10.892;2023-04-03T14:05:14;5.00;;;2.25;;
33740;SDS011;20065;48.380;10.892;2023-04-03T14:08:01;3.75;;;1.60;;
33740;SDS011;20065;48.380;10.892;2023-04-03T14:10:48;8.20;;;2.23;;
33740;SDS011;20065;48.380;10.892;2023-04-03T14:13:36;4.13;;;1.70;;
33740;SDS011;20065;48.380;10.892;2023-04-03T14:16:23;4.60;;;1.53;;
33740;SDS011;20065;48.380;10.892;2023-04-03T14:19:17;3.53;;;1.70;;
33740;SDS011;20065;48.380;10.892;2023-04-03T14:22:16;3.80;;;1.73;;
33740;SDS011;20065;48.380;10.892;2023-04-03T14:25:04;4.07;;;1.60;;
33740;SDS011;20065;48.380;10.892;2023-04-03T14:27:51;4.20;;;1.58;;
33740;SDS011;20065;48.380;10.892;2023-04-03T14:30:39;5.70;;;1.60;;
33740;SDS011;20065;48.380;10.892;2023-04-03T14:33:28;7.65;;;1.63;;
33740;SDS011;20065;48.380;10.892;2023-04-03T14:36:21;5.65;;;2.15;;
33740;SDS011;20065;48.380;10.892;2023-04-03T14:39:11;4.35;;;1.63;;
33740;SDS011;20065;48.380;10.892;2023-04-03T14:42:03;4.70;;;1.80;;
33740;SDS011;20065;48.380;10.892;2023-04-03T14:44:49;5.28;;;1.70;;
33740;SDS011;20065;48.380;10.892;2023-04-03T14:47:39;4.82;;;2.00;;
33740;SDS011;20065;48.380;10.892;2023-04-03T14:50:32;4.00;;;1.95;;
33740;SDS011;20065;48.380;10.892;2023-04-03T14:53:18;4.75;;;1.60;;
33740;SDS011;20065;48.380;10.892;2023-04-03T14:56:12;3.70;;;1.30;;
33740;SDS011;20065;48.380;10.892;2023-04-03T14:59:01;4.45;;;1.77;;
33740;SDS011;20065;48.380;10.892;2023-04-03T15:01:48;5.90;;;2.00;;
33740;SDS011;20065;48.380;10.892;2023-04-03T15:04:35;3.80;;;1.67;;
33740;SDS011;20065;48.380;10.892;2023-04-03T15:07:24;3.67;;;1.40;;
33740;SDS011;20065;48.380;10.892;2023-04-03T15:13:13;4.63;;;1.40;;
33740;SDS011;20065;48.380;10.892;2023-04-03T15:15:59;4.10;;;1.65;;
33740;SDS011;20065;48.380;10.892;2023-04-03T15:18:45;5.90;;;1.85;;
33740;SDS011;20065;48.380;10.892;2023-04-03T15:21:33;7.85;;;2.15;;
33740;SDS011;20065;48.380;10.892;2023-04-03T15:24:19;4.35;;;1.70;;
33740;SDS011;20065;48.380;10.892;2023-04-03T15:27:05;4.18;;;1.20;;
33740;SDS011;20065;48.380;10.892;2023-04-03T15:29:51;5.85;;;1.75;;
33740;SDS011;20065;48.380;10.892;2023-04-03T15:32:41;4.13;;;1.35;;
33740;SDS011;20065;48.380;10.892;2023-04-03T15:35:27;4.15;;;1.40;;
33740;SDS011;20065;48.380;10.892;2023-04-03T15:38:15;3.42;;;1.70;;
33740;SDS011;20065;48.380;10.892;2023-04-03T15:41:02;8.13;;;1.70;;
33740;SDS011;20065;48.380;10.892;2023-04-03T15:43:49;3.00;;;1.45;;
33740;SDS011;20065;48.380;10.892;2023-04-03T15:46:36;7.07;;;1.67;;
33740;SDS011;20065;48.380;10.892;2023-04-03T15:49:22;6.07;;;1.50;;
33740;SDS011;20065;48.380;10.892;2023-04-03T15:52:08;4.43;;;1.70;;
33740;SDS011;20065;48.380;10.892;2023-04-03T15:54:55;4.35;;;1.80;;
33740;SDS011;20065;48.380;10.892;2023-04-03T15:57:41;4.22;;;1.67;;
33740;SDS011;20065;48.380;10.892;2023-04-03T16:00:27;5.70;;;1.65;;
33740;SDS011;20065;48.380;10.892;2023-04-03T16:03:18;4.85;;;1.50;;
33740;SDS011;20065;48.380;10.892;2023-04-03T16:06:09;6.57;;;1.42;;
33740;SDS011;20065;48.380;10.892;2023-04-03T16:09:04;6.20;;;1.65;;
33740;SDS011;20065;48.380;10.892;2023-04-03T16:11:50;5.90;;;1.50;;
33740;SDS011;20065;48.380;10.892;2023-04-03T16:14:36;4.95;;;1.77;;
33740;SDS011;20065;48.380;10.892;2023-04-03T16:17:23;4.05;;;1.55;;
33740;SDS011;20065;48.380;10.892;2023-04-03T16:20:09;4.60;;;1.70;;
33740;SDS011;20065;48.380;10.892;2023-04-03T16:22:57;3.63;;;1.50;;
33740;SDS011;20065;48.380;10.892;2023-04-03T16:25:45;4.05;;;1.60;;
33740;SDS011;20065;48.380;10.892;2023-04-03T16:28:32;3.50;;;1.35;;
33740;SDS011;20065;48.380;10.892;2023-04-03T16:31:18;3.85;;;1.30;;
33740;SDS011;20065;48.380;10.892;2023-04-03T16:34:05;4.50;;;1.60;;
33740;SDS011;20065;48.380;10.892;2023-04-03T16:36:51;3.20;;;1.50;;
33740;SDS011;20065;48.380;10.892;2023-04-03T16:39:38;5.38;;;1.65;;
33740;SDS011;20065;48.380;10.892;2023-04-03T16:42:25;9.65;;;1.92;;
33740;SDS011;20065;48.380;10.892;2023-04-03T16:45:11;5.88;;;1.83;;
33740;SDS011;20065;48.380;10.892;2023-04-03T16:47:57;4.15;;;1.70;;
33740;SDS011;20065;48.380;10.892;2023-04-03T16:50:47;3.58;;;1.50;;
33740;SDS011;20065;48.380;10.892;2023-04-03T16:53:38;4.90;;;1.60;;
33740;SDS011;20065;48.380;10.892;2023-04-03T16:56:26;3.95;;;1.40;;
33740;SDS011;20065;48.380;10.892;2023-04-03T16:59:12;5.13;;;1.60;;
33740;SDS011;20065;48.380;10.892;2023-04-03T17:01:59;6.32;;;2.03;;
33740;SDS011;20065;48.380;10.892;2023-04-03T17:04:45;6.20;;;1.60;;
33740;SDS011;20065;48.380;10.892;2023-04-03T17:07:31;4.55;;;1.48;;
33740;SDS011;20065;48.380;10.892;2023-04-03T17:10:18;3.80;;;1.70;;
33740;SDS011;20065;48.380;10.892;2023-04-03T17:13:04;4.00;;;1.42;;
33740;SDS011;20065;48.380;10.892;2023-04-03T17:15:51;3.63;;;1.70;;
33740;SDS011;20065;48.380;10.892;2023-04-03T17:18:37;4.47;;;1.75;;
33740;SDS011;20065;48.380;10.892;2023-04-03T17:21:26;7.00;;;2.45;;
33740;SDS011;20065;48.380;10.892;2023-04-03T17:24:13;5.88;;;1.85;;
33740;SDS011;20065;48.380;10.892;2023-04-03T17:26:59;4.18;;;1.80;;
33740;SDS011;20065;48.380;10.892;2023-04-03T17:29:46;5.22;;;1.75;;
33740;SDS011;20065;48.380;10.892;2023-04-03T17:32:32;4.43;;;1.52;;
33740;SDS011;20065;48.380;10.892;2023-04-03T17:35:18;3.40;;;1.70;;
33740;SDS011;20065;48.380;10.892;2023-04-03T17:38:04;4.95;;;2.03;;
33740;SDS011;20065;48.380;10.892;2023-04-03T17:41:00;9.52;;;2.20;;
33740;SDS011;20065;48.380;10.892;2023-04-03T17:43:49;4.85;;;1.77;;
33740;SDS011;20065;48.380;10.892;2023-04-03T17:46:35;3.97;;;1.80;;
33740;SDS011;20065;48.380;10.892;2023-04-03T17:49:21;5.13;;;1.95;;
33740;SDS011;20065;48.380;10.892;2023-04-03T17:52:08;7.13;;;3.22;;
33740;SDS011;20065;48.380;10.892;2023-04-03T17:54:54;6.28;;;2.25;;
33740;SDS011;20065;48.380;10.892;2023-04-03T17:57:40;4.43;;;2.30;;
33740;SDS011;20065;48.380;10.892;2023-04-03T18:00:27;4.75;;;2.00;;
33740;SDS011;20065;48.380;10.892;2023-04-03T18:03:13;7.35;;;2.38;;
33740;SDS011;20065;48.380;10.892;2023-04-03T18:06:01;5.40;;;2.17;;
33740;SDS011;20065;48.380;10.892;2023-04-03T18:08:50;6.22;;;2.00;;
33740;SDS011;20065;48.380;10.892;2023-04-03T18:11:39;4.47;;;1.95;;
33740;SDS011;20065;48.380;10.892;2023-04-03T18:14:25;5.10;;;2.00;;
33740;SDS011;20065;48.380;10.892;2023-04-03T18:17:13;5.47;;;2.22;;
33740;SDS011;20065;48.380;10.892;2023-04-03T18:20:00;5.78;;;2.45;;
33740;SDS011;20065;48.380;10.892;2023-04-03T18:22:46;6.68;;;3.00;;
33740;SDS011;20065;48.380;10.892;2023-04-03T18:25:32;4.68;;;1.92;;
33740;SDS011;20065;48.380;10.892;2023-04-03T18:28:18;5.15;;;2.50;;
33740;SDS011;20065;48.380;10.892;2023-04-03T18:31:05;6.05;;;2.40;;
33740;SDS011;20065;48.380;10.892;2023-04-03T18:33:55;6.55;;;2.10;;
33740;SDS011;20065;48.380;10.892;2023-04-03T18:36:43;8.40;;;2.30;;
33740;SDS011;20065;48.380;10.892;2023-04-03T18:39:30;6.97;;;2.70;;